createdAt,value
2022-11-15T00:02:29.300Z,27.55
2022-11-15T00:07:17.880Z,27.88
2022-11-15T00:12:07.679Z,28.38
2022-11-15T00:16:48.256Z,26.17
2022-11-15T00:21:28.545Z,27.63
2022-11-15T00:26:14.425Z,32.53
2022-11-15T00:30:55.179Z,28.45
2022-11-15T00:35:36.430Z,35.05
2022-11-15T00:40:17.249Z,36.67
2022-11-15T00:44:57.779Z,35.17
2022-11-15T00:49:38.844Z,28.88
2022-11-15T00:54:19.447Z,32.70
2022-11-15T00:59:00.590Z,30.48
2022-11-15T01:03:42.441Z,29.65
2022-11-15T01:08:23.208Z,29.77
2022-11-15T01:13:03.715Z,31.02
2022-11-15T01:17:44.462Z,30.50
2022-11-15T01:22:24.844Z,27.63
2022-11-15T01:27:05.656Z,32.03
2022-11-15T01:31:46.342Z,32.10
2022-11-15T01:36:27.237Z,28.67
2022-11-15T01:41:13.760Z,27.45
2022-11-15T01:46:16.180Z,27.48
2022-11-15T01:50:58.110Z,31.02
2022-11-15T01:55:38.790Z,27.00
2022-11-15T02:00:19.681Z,28.27
2022-11-15T02:05:00.714Z,29.75
2022-11-15T02:09:41.657Z,29.60
2022-11-15T02:14:24.323Z,30.35
2022-11-15T02:19:41.650Z,27.90
2022-11-15T02:24:58.378Z,31.20
2022-11-15T02:30:17.211Z,25.80
2022-11-15T02:35:21.754Z,23.83
2022-11-15T02:40:12.831Z,27.88
2022-11-15T02:44:56.780Z,26.35
2022-11-15T02:49:38.739Z,29.50
2022-11-15T02:54:24.996Z,23.45
2022-11-15T02:59:33.025Z,31.38
2022-11-15T03:04:34.932Z,23.45
2022-11-15T03:09:43.365Z,26.92
2022-11-15T03:14:31.934Z,27.05
2022-11-15T03:19:33.778Z,25.00
2022-11-15T03:24:19.773Z,22.95
2022-11-15T03:29:20.776Z,26.23
2022-11-15T03:34:04.552Z,29.25
2022-11-15T03:38:46.882Z,30.40
2022-11-15T03:43:52.183Z,31.92
2022-11-15T03:48:40.760Z,27.45
2022-11-15T03:53:21.976Z,27.08
2022-11-15T03:58:02.896Z,30.58
2022-11-15T04:02:43.675Z,31.88
2022-11-15T04:07:23.897Z,30.77
2022-11-15T04:12:05.452Z,29.85
2022-11-15T04:16:46.317Z,31.42
2022-11-15T04:21:45.622Z,24.70
2022-11-15T04:26:26.819Z,29.13
2022-11-15T04:31:07.318Z,26.42
2022-11-15T04:36:08.232Z,24.70
2022-11-15T04:40:48.488Z,26.08
2022-11-15T04:45:29.507Z,26.20
2022-11-15T04:50:10.188Z,24.58
2022-11-15T04:54:50.659Z,22.55
2022-11-15T04:59:31.610Z,22.05
2022-11-15T05:04:21.626Z,20.63
2022-11-15T05:09:02.712Z,23.95
2022-11-15T05:13:43.857Z,19.73
2022-11-15T05:18:24.351Z,20.98
2022-11-15T05:23:06.559Z,19.75
2022-11-15T05:27:46.925Z,22.60
2022-11-15T05:32:27.643Z,19.73
2022-11-15T05:37:08.736Z,19.55
2022-11-15T05:41:58.328Z,19.60
2022-11-15T05:46:40.903Z,20.95
2022-11-15T05:51:23.671Z,20.23
2022-11-15T05:56:07.656Z,20.98
2022-11-15T06:00:48.617Z,19.73
2022-11-15T06:05:28.835Z,21.42
2022-11-15T06:10:10.031Z,25.55
2022-11-15T06:14:50.942Z,21.33
2022-11-15T06:19:33.980Z,20.15
2022-11-15T06:24:14.835Z,27.20
2022-11-15T06:28:55.770Z,22.08
2022-11-15T06:33:37.013Z,21.55
2022-11-15T06:38:18.240Z,21.35
2022-11-15T06:43:00.482Z,23.42
2022-11-15T06:47:49.790Z,26.77
2022-11-15T06:52:33.730Z,23.15
2022-11-15T06:57:14.452Z,21.80
2022-11-15T07:01:55.116Z,21.98
2022-11-15T07:06:36.172Z,24.80
2022-11-15T07:11:16.465Z,21.05
2022-11-15T07:15:57.086Z,20.02
2022-11-15T07:20:37.419Z,20.02
2022-11-15T07:25:18.015Z,20.23
2022-11-15T07:29:59.131Z,18.88
2022-11-15T07:34:39.543Z,16.65
2022-11-15T07:39:20.064Z,16.75
2022-11-15T07:44:01.370Z,22.23
2022-11-15T07:48:44.804Z,17.13
2022-11-15T07:53:25.968Z,19.77
2022-11-15T07:58:10.109Z,16.85
2022-11-15T08:02:51.200Z,16.88
2022-11-15T08:07:32.924Z,14.80
2022-11-15T08:12:13.422Z,15.75
2022-11-15T08:16:55.237Z,18.63
2022-11-15T08:21:36.245Z,19.08
2022-11-15T08:26:17.687Z,13.30
2022-11-15T08:30:58.175Z,15.13
2022-11-15T08:35:39.139Z,13.80
2022-11-15T08:40:20.687Z,13.73
2022-11-15T08:45:01.001Z,12.73
2022-11-15T08:49:41.987Z,11.27
2022-11-15T08:54:22.472Z,11.30
2022-11-15T08:59:03.270Z,10.48
2022-11-15T09:03:43.854Z,10.93
2022-11-15T09:08:46.681Z,8.65
2022-11-15T09:13:26.602Z,9.85
2022-11-15T09:18:07.193Z,9.30
2022-11-15T09:22:47.701Z,8.73
2022-11-15T09:27:32.272Z,6.85
2022-11-15T09:32:12.543Z,11.80
2022-11-15T09:36:53.349Z,9.98
2022-11-15T09:42:02.465Z,10.27
2022-11-15T09:47:07.358Z,7.82
2022-11-15T09:51:52.559Z,7.03
2022-11-15T09:56:35.968Z,6.68
2022-11-15T10:01:01.434Z,6.70
2022-11-15T10:05:26.327Z,5.85
2022-11-15T10:10:30.268Z,5.40
2022-11-15T10:15:06.486Z,9.45
2022-11-15T10:20:04.051Z,9.45
2022-11-15T10:24:34.034Z,9.90
2022-11-15T10:28:55.910Z,4.75
2022-11-15T10:33:37.537Z,6.25
2022-11-15T10:38:08.718Z,6.75
2022-11-15T10:42:30.908Z,6.45
2022-11-15T10:46:55.437Z,8.57
2022-11-15T10:51:30.946Z,8.30
2022-11-15T10:55:57.580Z,7.95
2022-11-15T11:00:22.223Z,8.57
2022-11-15T11:04:52.173Z,6.38
2022-11-15T11:09:35.136Z,7.53
2022-11-15T11:14:14.653Z,4.88
2022-11-15T11:18:58.812Z,5.72
2022-11-15T11:23:55.522Z,5.35
2022-11-15T11:29:01.828Z,5.18
2022-11-15T11:33:33.573Z,7.00
2022-11-15T11:38:20.156Z,3.85
2022-11-15T11:43:15.070Z,5.88
2022-11-15T11:47:47.870Z,6.05
2022-11-15T11:52:15.073Z,5.72
2022-11-15T11:56:41.107Z,5.68
2022-11-15T12:01:33.520Z,7.40
2022-11-15T12:06:10.487Z,9.30
2022-11-15T12:10:35.895Z,5.50
2022-11-15T12:15:13.604Z,8.40
2022-11-15T12:19:36.838Z,8.55
2022-11-15T12:24:15.009Z,8.68
2022-11-15T12:29:06.298Z,8.73
2022-11-15T12:34:02.919Z,10.77
2022-11-15T12:39:05.063Z,13.15
2022-11-15T12:43:46.987Z,10.57
2022-11-15T12:48:17.903Z,11.05
2022-11-15T12:53:28.840Z,7.18
2022-11-15T12:57:51.062Z,6.15
2022-11-15T13:02:29.144Z,8.52
2022-11-15T13:07:02.712Z,6.38
2022-11-15T13:11:49.596Z,7.70
2022-11-15T13:16:12.215Z,10.05
2022-11-15T13:20:34.537Z,6.53
2022-11-15T13:24:57.388Z,7.47
2022-11-15T13:29:21.039Z,12.50
2022-11-15T13:33:44.122Z,12.77
2022-11-15T13:38:07.258Z,11.60
2022-11-15T13:42:30.050Z,8.63
2022-11-15T13:47:16.560Z,9.15
2022-11-15T13:51:55.992Z,9.27
2022-11-15T13:56:19.917Z,8.75
2022-11-15T14:00:44.877Z,11.35
2022-11-15T14:05:23.757Z,8.98
2022-11-15T14:09:47.331Z,9.82
2022-11-15T14:14:08.947Z,8.73
2022-11-15T14:18:50.424Z,9.50
2022-11-15T14:23:28.869Z,9.25
2022-11-15T14:28:39.156Z,7.93
2022-11-15T14:33:01.100Z,7.85
2022-11-15T14:37:26.739Z,8.25
2022-11-15T14:41:48.745Z,10.88
2022-11-15T14:46:10.691Z,8.95
2022-11-15T14:50:34.362Z,11.63
2022-11-15T14:54:58.967Z,9.30
2022-11-15T14:59:20.867Z,11.02
2022-11-15T15:03:42.771Z,15.15
2022-11-15T15:08:06.518Z,10.95
2022-11-15T15:12:28.490Z,11.07
2022-11-15T15:16:50.424Z,12.57
2022-11-15T15:21:33.608Z,10.70
2022-11-15T15:25:59.236Z,14.93
2022-11-15T15:30:21.248Z,11.18
2022-11-15T15:34:43.057Z,13.15
2022-11-15T15:39:05.032Z,13.82
2022-11-15T15:43:27.025Z,18.88
2022-11-15T15:47:50.740Z,15.73
2022-11-15T15:52:13.029Z,11.98
2022-11-15T15:56:34.968Z,12.35
2022-11-15T16:00:56.921Z,12.15
2022-11-15T16:05:19.405Z,12.60
2022-11-15T16:10:01.739Z,13.15
2022-11-15T16:14:23.595Z,15.45
2022-11-15T16:18:45.724Z,21.27
2022-11-15T16:23:10.950Z,19.33
2022-11-15T16:27:32.960Z,19.80
2022-11-15T16:31:55.322Z,17.10
2022-11-15T16:36:30.832Z,21.42
2022-11-15T16:40:53.043Z,27.88
2022-11-15T16:45:14.766Z,17.88
2022-11-15T16:49:36.676Z,16.55
2022-11-15T16:58:31.304Z,15.57
2022-11-15T17:02:54.246Z,15.20
2022-11-15T17:07:16.024Z,74.15
2022-11-15T17:11:37.782Z,18.92
2022-11-15T17:16:12.154Z,62.60
2022-11-15T17:20:34.184Z,40.22
2022-11-15T17:24:56.005Z,26.90
2022-11-15T17:29:18.635Z,18.98
2022-11-15T17:33:41.558Z,20.85
2022-11-15T17:38:03.191Z,21.42
2022-11-15T17:42:24.972Z,22.38
2022-11-15T17:46:46.932Z,25.02
2022-11-15T17:51:12.701Z,26.83
2022-11-15T17:55:34.524Z,27.92
2022-11-15T17:59:56.484Z,24.55
2022-11-15T18:04:18.339Z,21.58
2022-11-15T18:08:42.848Z,27.75
2022-11-15T18:13:04.637Z,29.65
2022-11-15T18:17:26.329Z,27.23
2022-11-15T18:21:57.543Z,24.70
2022-11-15T18:26:24.347Z,25.83
2022-11-15T18:30:49.856Z,27.15
2022-11-15T18:35:11.555Z,29.25
2022-11-15T18:39:33.577Z,30.00
2022-11-15T18:43:58.459Z,29.27
2022-11-15T18:48:20.262Z,23.77
2022-11-15T18:52:42.233Z,26.65
2022-11-15T18:57:04.215Z,22.38
2022-11-15T19:01:38.004Z,26.48
2022-11-15T19:06:08.722Z,26.35
2022-11-15T19:10:30.269Z,28.67
2022-11-15T19:14:54.591Z,26.58
2022-11-15T19:19:19.658Z,25.90
2022-11-15T19:23:43.690Z,29.63
2022-11-15T19:28:05.667Z,28.58
2022-11-15T19:32:28.609Z,33.30
2022-11-15T19:36:51.276Z,26.60
2022-11-15T19:41:17.812Z,29.10
2022-11-15T19:45:39.593Z,35.80
2022-11-15T19:50:01.631Z,27.60
2022-11-15T19:54:23.525Z,26.35
2022-11-15T19:58:46.501Z,35.53
2022-11-15T20:03:10.570Z,27.88
2022-11-15T20:07:32.362Z,36.80
2022-11-15T20:11:54.400Z,26.08
2022-11-15T20:16:22.547Z,27.88
2022-11-15T20:20:44.989Z,32.67
2022-11-15T20:25:07.299Z,28.75
2022-11-15T20:29:28.831Z,29.00
2022-11-15T20:33:51.642Z,29.08
2022-11-15T20:38:13.725Z,29.40
2022-11-15T20:42:35.589Z,32.35
2022-11-15T20:46:57.729Z,30.45
2022-11-15T20:51:20.206Z,27.33
2022-11-15T20:55:47.787Z,25.92
2022-11-15T21:00:10.366Z,27.20
2022-11-15T21:04:32.015Z,26.98
2022-11-15T21:09:14.322Z,25.70
2022-11-15T21:13:37.438Z,28.25
2022-11-15T21:17:59.474Z,30.58
2022-11-15T21:22:21.165Z,30.00
2022-11-15T21:26:43.114Z,24.38
2022-11-15T21:31:04.865Z,30.00
2022-11-15T21:35:26.676Z,28.40
2022-11-15T21:39:48.459Z,30.85
2022-11-15T21:44:10.737Z,33.78
2022-11-15T21:48:36.252Z,27.48
2022-11-15T21:52:58.412Z,26.08
2022-11-15T21:57:21.411Z,25.50
2022-11-15T22:02:01.987Z,25.70
2022-11-15T22:06:24.648Z,21.95
2022-11-15T22:10:50.919Z,22.42
2022-11-15T22:15:12.862Z,23.13
2022-11-15T22:19:34.705Z,27.25
2022-11-15T22:23:56.544Z,19.23
2022-11-15T22:28:18.708Z,22.48
2022-11-15T22:32:40.645Z,20.63
2022-11-15T22:41:44.206Z,19.65
2022-11-15T22:46:06.589Z,20.25
2022-11-15T22:50:28.665Z,22.63
2022-11-15T22:54:50.571Z,22.27
2022-11-15T22:59:12.994Z,20.20
2022-11-15T23:03:35.138Z,24.50
2022-11-15T23:07:57.171Z,19.10
2022-11-15T23:12:37.854Z,20.80
2022-11-15T23:16:59.862Z,25.02
2022-11-15T23:21:44.586Z,20.95
2022-11-15T23:26:07.100Z,24.83
2022-11-15T23:30:47.694Z,20.85
2022-11-15T23:35:09.609Z,21.50
2022-11-15T23:39:31.308Z,26.38
2022-11-15T23:43:53.196Z,19.65
2022-11-15T23:48:15.291Z,23.10
2022-11-15T23:52:37.286Z,21.05
2022-11-15T23:56:59.220Z,20.48
